Time;durP1;ratioP1;P1;durP2;ratioP2;P2;SDS_P1;SDS_P2;PMS_P1;PMS_P2;Temp;Humidity;BMP_temperature;BMP_pressure;BME280_temperature;BME280_humidity;BME280_pressure;Samples;Min_cycle;Max_cycle;Signal;HPM_P1;HPM_P2
2022/11/17 00:03:14;;;;;;;17.00;6.77;;;11.00;99.90;;;;;;21089336;28;20237;-72
2022/11/17 00:23:48;;;;;;;11.50;6.27;;;11.10;99.90;;;;;;21087294;28;20240;-72
2022/11/17 00:34:06;;;;;;;11.70;5.77;;;11.10;99.90;;;;;;21087272;28;20224;-73
2022/11/17 00:44:09;;;;;;;8.57;5.90;;;11.10;99.90;;;;;;21086554;28;20243;-72
2022/11/17 00:54:12;;;;;;;8.47;5.53;;;11.20;99.90;;;;;;21084849;28;20654;-72
2022/11/17 01:04:14;;;;;;;10.00;6.10;;;11.10;99.90;;;;;;21084279;28;20280;-72
2022/11/17 01:14:19;;;;;;;12.80;6.17;;;11.10;99.90;;;;;;21084353;28;20296;-71
2022/11/17 01:24:21;;;;;;;9.77;6.50;;;11.10;99.90;;;;;;21076917;28;20248;-71
2022/11/17 01:34:22;;;;;;;9.27;6.47;;;11.00;99.90;;;;;;21080153;28;20206;-72
2022/11/17 01:44:47;;;;;;;13.90;6.87;;;11.00;99.90;;;;;;21081705;28;20759;-72
2022/11/17 01:54:52;;;;;;;14.47;6.73;;;11.00;99.90;;;;;;21080858;28;20208;-71
2022/11/17 02:05:26;;;;;;;9.10;6.83;;;11.00;99.90;;;;;;21079881;28;20239;-72
2022/11/17 02:15:29;;;;;;;8.70;7.00;;;11.00;99.90;;;;;;21079796;28;20214;-72
2022/11/17 02:25:49;;;;;;;9.00;6.63;;;11.00;99.90;;;;;;21079144;28;20279;-72
2022/11/17 02:36:27;;;;;;;10.03;7.17;;;11.00;99.90;;;;;;21078651;28;20204;-72
2022/11/17 02:46:43;;;;;;;9.50;7.10;;;11.00;99.90;;;;;;21092705;28;20229;-73
2022/11/17 02:56:45;;;;;;;9.77;6.40;;;11.00;99.90;;;;;;21110958;28;20203;-73
2022/11/17 03:07:23;;;;;;;8.93;6.90;;;11.00;99.90;;;;;;21094053;28;20239;-72
2022/11/17 03:17:46;;;;;;;11.13;7.37;;;11.00;99.90;;;;;;21093353;28;20213;-73
2022/11/17 03:27:52;;;;;;;8.83;6.90;;;11.00;99.90;;;;;;21005665;28;20336;-73
2022/11/17 03:37:57;;;;;;;11.73;7.50;;;11.00;99.90;;;;;;20988720;28;20220;-73
2022/11/17 03:48:17;;;;;;;12.53;7.63;;;11.00;99.90;;;;;;21007024;28;20346;-73
2022/11/17 03:58:25;;;;;;;10.50;7.57;;;11.00;99.90;;;;;;21006467;28;20208;-73
2022/11/17 04:08:29;;;;;;;10.83;8.60;;;10.90;99.90;;;;;;21005656;28;20233;-73
2022/11/17 04:18:31;;;;;;;11.97;8.73;;;10.90;99.90;;;;;;21004608;28;20283;-72
2022/11/17 04:28:35;;;;;;;11.17;8.30;;;10.90;99.90;;;;;;21004265;28;20692;-73
2022/11/17 04:38:41;;;;;;;10.60;8.37;;;10.90;99.90;;;;;;21003158;28;20206;-72
2022/11/17 04:48:43;;;;;;;13.33;8.23;;;10.80;99.90;;;;;;21002366;28;20265;-71
2022/11/17 04:58:45;;;;;;;11.53;8.20;;;10.80;99.90;;;;;;21001713;28;20209;-71
2022/11/17 05:08:48;;;;;;;10.47;8.50;;;10.90;99.90;;;;;;20999282;28;20231;-72
2022/11/17 05:18:49;;;;;;;13.70;8.83;;;10.80;99.90;;;;;;20980648;28;20218;-71
2022/11/17 05:28:53;;;;;;;10.53;8.50;;;10.70;99.90;;;;;;21077990;28;20274;-72
2022/11/17 05:38:56;;;;;;;11.93;8.87;;;10.70;99.90;;;;;;21080655;28;20579;-72
2022/11/17 05:48:58;;;;;;;10.90;8.27;;;10.70;99.90;;;;;;21080622;28;20249;-71
2022/11/17 05:59:09;;;;;;;10.97;8.53;;;10.60;99.90;;;;;;21080173;28;20660;-72
2022/11/17 06:09:11;;;;;;;31.37;12.50;;;10.70;99.90;;;;;;21079149;28;20274;-71
2022/11/17 06:19:20;;;;;;;11.37;7.97;;;10.70;99.90;;;;;;21077728;28;20216;-71
2022/11/17 06:29:21;;;;;;;12.20;7.97;;;10.70;99.90;;;;;;21077370;28;20248;-71
2022/11/17 06:39:24;;;;;;;11.17;6.53;;;10.70;99.90;;;;;;21076136;28;20201;-70
2022/11/17 06:49:28;;;;;;;9.67;6.73;;;10.70;99.90;;;;;;21056567;28;20244;-72
2022/11/17 06:59:30;;;;;;;8.67;5.70;;;10.70;99.90;;;;;;21076258;28;20217;-72
2022/11/17 07:09:32;;;;;;;7.23;5.30;;;10.80;99.90;;;;;;21075382;28;20697;-72
2022/11/17 07:19:34;;;;;;;8.80;5.50;;;10.90;99.90;;;;;;21072416;28;20262;-72
2022/11/17 07:29:35;;;;;;;6.70;5.03;;;11.00;99.90;;;;;;20997547;28;20271;-71
2022/11/17 07:39:37;;;;;;;7.90;4.67;;;11.00;99.90;;;;;;20987856;28;20643;-72
2022/11/17 07:49:39;;;;;;;6.13;4.50;;;11.10;99.90;;;;;;21005530;28;20230;-72
2022/11/17 07:59:40;;;;;;;5.07;4.10;;;11.20;99.90;;;;;;21004810;28;20213;-73
2022/11/17 08:09:42;;;;;;;4.97;3.70;;;11.30;99.90;;;;;;21004119;28;20266;-73
2022/11/17 08:19:43;;;;;;;4.67;3.30;;;11.40;99.90;;;;;;21003513;28;20211;-72
2022/11/17 08:29:45;;;;;;;5.07;3.20;;;11.40;99.90;;;;;;21018068;28;20630;-72
2022/11/17 08:39:47;;;;;;;4.67;3.07;;;11.70;99.90;;;;;;21002010;28;20225;-70
2022/11/17 08:49:48;;;;;;;7.00;4.40;;;11.80;99.90;;;;;;21000659;28;20242;-72
2022/11/17 08:59:50;;;;;;;4.30;2.47;;;11.80;99.90;;;;;;20999921;28;20245;-72
2022/11/17 09:09:52;;;;;;;3.67;2.70;;;11.70;99.90;;;;;;20999734;28;20235;-72
2022/11/17 09:19:53;;;;;;;4.07;2.60;;;11.90;99.90;;;;;;20998639;28;20210;-72
2022/11/17 09:29:55;;;;;;;8.10;3.47;;;11.90;99.90;;;;;;20994936;28;20281;-72
2022/11/17 09:39:57;;;;;;;4.30;3.17;;;12.00;99.90;;;;;;20996069;28;20226;-70
2022/11/17 09:50:14;;;;;;;6.97;4.10;;;12.10;99.90;;;;;;20995812;28;20239;-72
2022/11/17 10:00:20;;;;;;;5.60;3.80;;;12.20;99.90;;;;;;20995696;28;20204;-71
2022/11/17 10:10:31;;;;;;;6.73;3.33;;;12.20;99.90;;;;;;20995524;28;20245;-71
2022/11/17 10:20:32;;;;;;;5.10;3.53;;;12.40;99.90;;;;;;20993981;28;20204;-72
2022/11/17 10:30:35;;;;;;;5.90;3.50;;;12.40;99.90;;;;;;20994336;28;20641;-72
2022/11/17 10:40:39;;;;;;;8.13;4.10;;;12.60;99.90;;;;;;20994361;28;20220;-72
2022/11/17 10:50:59;;;;;;;19.47;10.30;;;12.60;99.90;;;;;;20993677;28;20236;-72
2022/11/17 11:01:02;;;;;;;7.27;4.10;;;12.90;99.90;;;;;;20998353;28;20211;-71
2022/11/17 11:11:14;;;;;;;7.77;4.80;;;13.00;99.90;;;;;;21009555;28;20235;-71
2022/11/17 11:21:42;;;;;;;20.80;3.63;;;13.00;99.90;;;;;;21008351;28;20229;-72
2022/11/17 11:31:51;;;;;;;5.80;1.97;;;13.00;99.90;;;;;;21005048;28;20345;-73
2022/11/17 11:49:24;;;;;;;6.37;2.20;;;13.00;99.90;;;;;;21236457;27;20550;-71
2022/11/17 11:59:51;;;;;;;3.43;1.93;;;13.10;99.90;;;;;;21237196;27;20214;-73
2022/11/17 12:10:28;;;;;;;2.70;1.60;;;13.20;99.90;;;;;;21235310;27;20201;-72
2022/11/17 12:20:30;;;;;;;3.53;1.43;;;13.20;99.90;;;;;;21233584;27;20232;-72
2022/11/17 12:30:31;;;;;;;1.93;1.17;;;13.10;99.90;;;;;;21232444;27;20202;-72
2022/11/17 12:40:47;;;;;;;2.67;1.40;;;13.10;99.90;;;;;;21231280;27;20316;-72
2022/11/17 12:51:08;;;;;;;1.43;1.10;;;13.40;99.90;;;;;;21231115;27;20197;-72
2022/11/17 13:01:33;;;;;;;2.90;1.00;;;13.80;99.90;;;;;;21173158;28;20231;-71
2022/11/17 13:11:35;;;;;;;2.70;1.00;;;13.70;98.20;;;;;;21168536;28;20210;-71
2022/11/17 13:21:37;;;;;;;2.13;1.40;;;13.60;98.20;;;;;;21169327;28;20257;-73
2022/11/17 13:31:39;;;;;;;3.57;1.40;;;13.60;98.40;;;;;;21084448;28;20217;-72
2022/11/17 13:41:41;;;;;;;9.93;1.60;;;13.50;98.60;;;;;;21084528;28;20299;-73
2022/11/17 13:51:43;;;;;;;3.93;1.53;;;13.40;98.80;;;;;;21084721;28;20207;-73
2022/11/17 14:01:45;;;;;;;6.13;1.30;;;13.20;99.10;;;;;;21084146;28;20699;-71
2022/11/17 14:11:47;;;;;;;5.90;1.47;;;13.10;99.40;;;;;;21080704;28;20241;-76
2022/11/17 14:22:20;;;;;;;5.93;1.90;;;13.00;99.80;;;;;;21116048;27;20233;-70
2022/11/17 14:32:33;;;;;;;4.00;1.50;;;12.80;99.90;;;;;;21081878;28;20569;-70
2022/11/17 14:42:35;;;;;;;10.43;2.43;;;12.80;99.90;;;;;;21081297;28;20721;-70
2022/11/17 14:52:38;;;;;;;4.40;1.57;;;12.70;99.90;;;;;;21080836;28;20205;-75
2022/11/17 15:02:40;;;;;;;8.10;2.73;;;12.30;99.90;;;;;;21079814;28;20240;-73
2022/11/17 15:12:41;;;;;;;9.03;2.83;;;12.20;99.90;;;;;;21079421;28;20205;-76
2022/11/17 15:22:43;;;;;;;5.43;2.60;;;12.10;99.90;;;;;;21077942;28;20678;-76
2022/11/17 15:32:44;;;;;;;8.20;3.43;;;12.10;99.90;;;;;;21077754;28;20673;-76
2022/11/17 15:42:46;;;;;;;10.03;2.90;;;11.90;99.90;;;;;;21078321;28;20246;-73
2022/11/17 15:52:48;;;;;;;12.43;5.43;;;11.90;99.90;;;;;;21077205;28;20203;-75
2022/11/17 16:03:05;;;;;;;11.43;4.23;;;11.90;99.90;;;;;;21076579;28;20400;-72
2022/11/17 16:13:06;;;;;;;4.40;2.50;;;11.80;99.90;;;;;;21076032;28;20214;-74
2022/11/17 16:23:08;;;;;;;4.17;1.97;;;11.90;99.90;;;;;;21075931;28;20240;-74
2022/11/17 16:33:12;;;;;;;6.03;2.27;;;11.70;99.90;;;;;;21087410;28;20214;-71
2022/11/17 16:43:13;;;;;;;2.50;1.63;;;11.70;99.90;;;;;;21091071;28;20299;-73
2022/11/17 16:53:15;;;;;;;6.53;3.97;;;11.70;99.90;;;;;;21091681;28;20289;-71
2022/11/17 17:03:17;;;;;;;12.90;7.40;;;11.70;99.90;;;;;;21088554;28;20235;-71
2022/11/17 17:13:18;;;;;;;5.83;3.27;;;11.70;99.90;;;;;;21088645;28;20615;-70
2022/11/17 17:23:20;;;;;;;5.13;3.00;;;11.60;99.90;;;;;;21088458;28;20516;-72
2022/11/17 17:36:10;;;;;;;8.17;5.00;;;11.50;99.90;;;;;;21194126;27;1253708;-72
2022/11/17 17:46:15;;;;;;;11.43;5.50;;;11.30;99.90;;;;;;21151244;28;20217;-74
2022/11/17 17:56:19;;;;;;;8.97;5.87;;;11.30;99.90;;;;;;21150768;28;20240;-69
2022/11/17 18:06:21;;;;;;;10.47;6.50;;;11.30;99.90;;;;;;21149715;28;20205;-74
2022/11/17 18:16:28;;;;;;;7.37;3.40;;;11.30;99.90;;;;;;21125568;28;20781;-72
2022/11/17 18:26:34;;;;;;;7.47;3.83;;;11.30;99.90;;;;;;21061819;28;20228;-70
2022/11/17 18:36:36;;;;;;;8.70;4.50;;;11.30;99.90;;;;;;21064021;28;20278;-71
2022/11/17 18:46:38;;;;;;;6.67;4.53;;;11.30;99.90;;;;;;21010776;28;20267;-72
2022/11/17 18:56:40;;;;;;;8.87;5.50;;;11.30;99.90;;;;;;21012350;28;20620;-73
2022/11/17 19:06:42;;;;;;;11.53;7.13;;;11.30;99.90;;;;;;21086290;28;20275;-69
2022/11/17 19:16:43;;;;;;;9.17;6.27;;;11.20;99.90;;;;;;21087647;28;20206;-72
2022/11/17 19:26:46;;;;;;;17.07;9.70;;;11.20;99.90;;;;;;21064170;28;20303;-77
2022/11/17 19:36:47;;;;;;;15.13;8.10;;;11.10;99.90;;;;;;21045808;28;20219;-72
2022/11/17 19:46:49;;;;;;;15.53;6.93;;;11.10;99.90;;;;;;21006492;28;20648;-71
2022/11/17 19:56:52;;;;;;;13.13;7.73;;;11.00;99.90;;;;;;21049024;28;20205;-71
2022/11/17 20:06:54;;;;;;;17.47;9.83;;;11.10;99.90;;;;;;21007605;28;20273;-70
2022/11/17 20:16:55;;;;;;;15.67;8.40;;;11.00;99.90;;;;;;21079554;28;20204;-69
2022/11/17 20:26:57;;;;;;;11.13;6.93;;;11.00;99.90;;;;;;21078748;28;20290;-69
2022/11/17 20:36:59;;;;;;;11.13;6.17;;;11.00;99.90;;;;;;21078956;28;20207;-71
2022/11/17 20:47:00;;;;;;;22.63;11.10;;;11.20;99.90;;;;;;21040371;28;20330;-75
2022/11/17 20:57:02;;;;;;;11.97;6.43;;;11.10;99.90;;;;;;21065142;28;20209;-74
2022/11/17 21:07:04;;;;;;;13.70;7.30;;;11.20;99.90;;;;;;20993631;28;20269;-70
2022/11/17 21:18:22;;;;;;;11.40;7.10;;;11.20;99.90;;;;;;21018628;28;20300;-72
2022/11/17 21:27:27;;;;;;;10.87;6.10;;;11.20;99.90;;;;;;21075963;28;20274;-69
2022/11/17 21:37:29;;;;;;;9.00;5.70;;;11.20;99.90;;;;;;21076123;28;20230;-69
2022/11/17 21:47:31;;;;;;;12.03;7.77;;;11.10;99.90;;;;;;21075190;28;20264;-69
2022/11/17 21:57:32;;;;;;;12.20;7.37;;;11.00;99.90;;;;;;20996734;28;20244;-75
2022/11/17 22:07:34;;;;;;;15.37;9.30;;;10.90;99.90;;;;;;20988254;28;20253;-74
2022/11/17 22:17:36;;;;;;;9.33;6.50;;;10.90;99.90;;;;;;20996291;28;20212;-75
2022/11/17 22:27:37;;;;;;;18.27;8.00;;;10.90;99.90;;;;;;21005396;28;21015;-75
2022/11/17 22:37:39;;;;;;;14.03;7.60;;;10.90;99.90;;;;;;21005157;28;20208;-75
2022/11/17 22:47:41;;;;;;;9.40;5.40;;;10.90;99.90;;;;;;21004077;28;20700;-75
2022/11/17 22:57:42;;;;;;;9.73;5.07;;;11.00;99.90;;;;;;21003496;28;20210;-75
2022/11/17 23:07:44;;;;;;;6.30;2.70;;;11.10;99.90;;;;;;21004823;28;20237;-75
2022/11/17 23:17:47;;;;;;;8.27;3.70;;;11.10;99.90;;;;;;21008660;28;20210;-73
2022/11/17 23:27:49;;;;;;;7.73;4.50;;;11.10;99.90;;;;;;21082102;28;20596;-74
2022/11/17 23:37:50;;;;;;;8.20;5.53;;;11.10;99.90;;;;;;21086649;28;20205;-74
2022/11/17 23:47:52;;;;;;;12.63;6.67;;;11.00;99.90;;;;;;21085555;28;20228;-74
2022/11/17 23:57:54;;;;;;;12.57;6.70;;;11.00;99.90;;;;;;21084820;28;20205;-75
